Terminal Aerodrome Forecast
Issued by NWS Cleveland, OH

Home | Current Version | Previous Version | Graphics & Text | Print | Product List | Glossary Off
Versions: 1 2 3 4 5 6 7 8 9 10 11 12 13 14 15 16 17 18 19 20 21 22 23 24 25

000
FTUS41 KCLE 220500 RRA
TAFYNG
TAF
KYNG 220542Z 2206/2306 31012G18KT P6SM VCSH SCT006 OVC015
      TEMPO 2207/2211 3SM -SHRA BKN006
     FM221600 31011KT P6SM BKN030
     FM222100 30007KT P6SM BKN040=

USA.gov is the U.S. government's official web portal to all federal, state and local government web resources and services.